Terminal Aerodrome Forecast
Issued by NWS

Home | Current Version | Previous Version | Graphics & Text | Print | Product List | Glossary On
Versions: 1 2 3 4 5 6 7 8 9 10 11 12 13 14 15 16 17 18 19 20 21 22
000
FTUS42 KMHX 212340
TAFOAJ
TAF
KOAJ 212340Z 2200/2224 19003KT P6SM FEW040 BKN090
      TEMPO 2200/2201 TSRA BKN030CB
     FM220900 VRB03KT P6SM SCT005 BKN015
      TEMPO 2209/2212 5SM BR BKN005
     FM221200 21004KT P6SM SCT005 BKN020
     FM221400 20010KT P6SM SCT150
      AMD LTD TO CLD VIS AND WIND=

USA.gov is the U.S. government's official web portal to all federal, state and local government web resources and services.